Time;durP1;ratioP1;P1;durP2;ratioP2;P2;SDS_P1;SDS_P2;PMS_P1;PMS_P2;Temp;Humidity;BMP_temperature;BMP_pressure;BME280_temperature;BME280_humidity;BME280_pressure;Samples;Min_cycle;Max_cycle;Signal;HPM_P1;HPM_P2
2021/04/26 00:01:30;;;;;;;7.60;1.85;;;;;;;7.91;54.72;102697.44;4981679;28;20457;-88
2021/04/26 00:03:56;;;;;;;6.55;1.80;;;;;;;7.89;54.62;102703.53;4983326;28;20030;-88
2021/04/26 00:06:23;;;;;;;6.75;1.60;;;;;;;7.88;55.20;102700.00;4978544;28;20045;-87
2021/04/26 00:09:00;;;;;;;7.80;1.95;;;;;;;7.88;55.19;102694.72;4985533;28;20041;-86
2021/04/26 00:11:27;;;;;;;5.82;1.52;;;;;;;7.81;55.70;102694.56;4980315;28;20157;-90
2021/04/26 00:13:53;;;;;;;6.50;1.98;;;;;;;7.77;55.63;102697.13;4978130;28;20030;-88
2021/04/26 00:16:20;;;;;;;4.90;1.92;;;;;;;7.77;55.83;102691.84;4991024;28;20034;-85
2021/04/26 00:18:46;;;;;;;6.03;1.88;;;;;;;7.76;55.58;102689.19;4984454;28;20030;-88
2021/04/26 00:21:13;;;;;;;6.57;1.80;;;;;;;7.73;55.79;102684.72;4988886;28;20037;-88
2021/04/26 00:23:39;;;;;;;2.10;1.60;;;;;;;7.75;55.98;102680.38;4981420;28;20038;-89
2021/04/26 00:26:23;;;;;;;5.72;1.85;;;;;;;7.78;55.89;102683.06;4980762;28;20057;-88
2021/04/26 00:28:59;;;;;;;10.73;2.47;;;;;;;7.77;56.32;102673.38;4986172;28;20105;-88
2021/04/26 00:31:26;;;;;;;7.28;1.60;;;;;;;7.73;55.82;102674.16;4975833;28;20041;-89
2021/04/26 00:33:53;;;;;;;4.05;2.13;;;;;;;7.70;55.86;102668.84;4981317;28;20474;-84
2021/04/26 00:36:20;;;;;;;6.03;1.75;;;;;;;7.70;56.10;102663.56;4984756;28;20035;-84
2021/04/26 00:38:47;;;;;;;4.35;1.80;;;;;;;7.70;56.20;102660.94;4991020;28;20161;-90
2021/04/26 00:41:13;;;;;;;8.30;2.17;;;;;;;7.69;56.08;102650.31;4979234;28;20027;-82
2021/04/26 00:43:40;;;;;;;5.72;2.10;;;;;;;7.68;55.99;102654.72;4978050;28;20046;-83
2021/04/26 00:46:06;;;;;;;7.22;1.90;;;;;;;7.68;56.52;102652.06;4977019;28;20055;-81
2021/04/26 00:48:33;;;;;;;3.80;1.85;;;;;;;7.63;56.67;102643.19;4982716;28;20109;-82
2021/04/26 00:51:00;;;;;;;6.25;2.45;;;;;;;7.61;56.67;102647.53;4983128;28;20023;-82
2021/04/26 00:53:26;;;;;;;8.80;2.85;;;;;;;7.58;56.34;102643.06;4975768;28;20037;-83
2021/04/26 00:55:53;;;;;;;5.45;2.30;;;;;;;7.56;56.91;102636.91;4976313;28;20058;-82
2021/04/26 00:58:29;;;;;;;5.55;2.25;;;;;;;7.59;56.95;102628.16;4973032;28;20030;-81
2021/04/26 01:01:07;;;;;;;3.88;1.67;;;;;;;7.59;57.10;102626.38;4972392;28;20027;-84
2021/04/26 01:03:40;;;;;;;6.75;1.63;;;;;;;7.56;56.82;102630.72;4978378;28;20031;-87
2021/04/26 01:06:06;;;;;;;5.00;2.05;;;;;;;7.48;57.11;102637.56;4975476;28;20035;-88
2021/04/26 01:08:33;;;;;;;2.67;1.60;;;;;;;7.47;57.01;102636.69;4985465;28;20023;-81
2021/04/26 01:11:00;;;;;;;7.93;1.75;;;;;;;7.45;56.97;102636.66;4983279;28;20038;-81
2021/04/26 01:13:54;;;;;;;5.40;2.15;;;;;;;7.54;57.27;102640.31;4976265;28;20027;-88
2021/04/26 01:16:45;;;;;;;8.30;2.15;;;;;;;7.51;57.53;102627.97;4975830;28;20042;-88
2021/04/26 01:25:20;;;;;;;7.15;2.03;;;;;;;7.45;57.66;102630.47;5069565;27;20417;-88
2021/04/26 01:30:40;;;;;;;4.25;2.60;;;;;;;7.41;57.81;102623.34;5057344;28;20917;-88
2021/04/26 01:33:11;;;;;;;7.53;2.13;;;;;;;7.42;57.96;102626.03;5029154;28;20046;-88
2021/04/26 01:35:38;;;;;;;7.10;1.92;;;;;;;7.37;58.06;102616.25;5024981;28;20428;-88
2021/04/26 01:38:16;;;;;;;5.20;1.98;;;;;;;7.42;57.44;102620.75;5029001;28;20081;-87
2021/04/26 01:40:44;;;;;;;8.23;2.10;;;;;;;7.36;57.50;102615.34;5048280;22;20127;-83
2021/04/26 01:43:13;;;;;;;7.18;2.25;;;;;;;7.37;57.47;102616.25;5071016;28;20028;-84
2021/04/26 01:45:41;;;;;;;9.05;2.38;;;;;;;7.31;57.82;102617.00;5070721;28;20471;-83
2021/04/26 01:48:07;;;;;;;5.30;1.95;;;;;;;7.32;57.48;102612.63;5069889;28;20048;-83
2021/04/26 01:50:35;;;;;;;9.38;2.50;;;;;;;7.32;57.60;102615.25;5070676;28;20107;-83
2021/04/26 01:53:03;;;;;;;6.25;1.63;;;;;;;7.28;57.59;102611.66;5070783;28;20037;-83
2021/04/26 01:55:30;;;;;;;8.18;3.30;;;;;;;7.25;58.00;102607.22;5070672;28;20025;-82
2021/04/26 01:58:00;;;;;;;6.05;1.95;;;;;;;7.24;57.95;102600.16;5069944;28;20036;-83
2021/04/26 02:00:29;;;;;;;8.23;2.10;;;;;;;7.23;57.84;102595.72;5068784;28;20041;-85
2021/04/26 02:02:57;;;;;;;4.78;1.90;;;;;;;7.22;58.08;102595.72;5070568;28;20044;-83
2021/04/26 02:05:26;;;;;;;5.32;2.20;;;;;;;7.21;57.78;102599.19;5070240;28;20357;-82
2021/04/26 02:07:54;;;;;;;4.65;1.95;;;;;;;7.18;57.79;102591.19;5069925;28;20123;-83
2021/04/26 02:10:23;;;;;;;5.63;2.28;;;;;;;7.15;57.89;102592.03;5069804;28;20024;-83
2021/04/26 02:12:51;;;;;;;10.43;1.90;;;;;;;7.13;58.11;102593.75;5069841;28;20033;-83
2021/04/26 02:15:20;;;;;;;8.10;2.42;;;;;;;7.09;58.13;102587.53;5069723;28;20050;-82
2021/04/26 02:17:47;;;;;;;8.98;2.13;;;;;;;7.06;58.27;102582.16;5069555;28;20391;-82
2021/04/26 02:20:16;;;;;;;6.93;2.00;;;;;;;7.09;58.30;102584.88;5069837;28;20040;-82
2021/04/26 02:22:46;;;;;;;4.00;1.88;;;;;;;7.04;58.39;102581.25;5070138;28;20029;-83
2021/04/26 02:25:14;;;;;;;2.67;1.55;;;;;;;7.05;58.18;102577.78;5069961;28;20021;-83
2021/04/26 02:27:40;;;;;;;3.90;2.05;;;;;;;7.04;58.20;102576.00;5070369;28;20036;-83
2021/04/26 02:30:08;;;;;;;8.23;2.00;;;;;;;7.02;58.09;102579.44;5069715;28;20187;-83
2021/04/26 02:32:42;;;;;;;5.15;2.13;;;;;;;7.02;58.01;102572.41;5068710;28;20035;-83
2021/04/26 02:35:11;;;;;;;3.65;1.77;;;;;;;6.96;58.21;102569.66;5069819;28;20028;-83
2021/04/26 02:38:00;;;;;;;4.22;1.90;;;;;;;7.01;58.09;102569.75;5069159;28;20029;-83
2021/04/26 02:40:31;;;;;;;3.53;1.88;;;;;;;6.88;58.20;102564.22;5062790;28;20036;-83
2021/04/26 02:42:59;;;;;;;8.25;2.05;;;;;;;6.87;58.32;102574.72;5056013;28;20040;-83
2021/04/26 02:45:29;;;;;;;8.75;2.50;;;;;;;6.85;58.06;102569.38;5056312;28;20033;-82
2021/04/26 02:47:57;;;;;;;7.97;2.05;;;;;;;6.82;58.29;102560.53;5055806;28;20056;-83
2021/04/26 02:50:26;;;;;;;2.58;1.50;;;;;;;6.79;58.23;102556.97;5055939;28;20021;-83
2021/04/26 02:52:54;;;;;;;7.10;2.47;;;;;;;6.73;58.59;102555.94;5055682;28;20037;-83
2021/04/26 02:55:23;;;;;;;6.30;2.30;;;;;;;6.71;58.70;102560.28;5055355;28;20108;-82
2021/04/26 02:57:52;;;;;;;6.47;2.15;;;;;;;6.71;58.84;102555.91;5056075;28;20029;-82
2021/04/26 03:00:20;;;;;;;6.07;1.70;;;;;;;6.71;58.63;102561.16;5055324;28;20060;-83
2021/04/26 03:02:47;;;;;;;5.38;1.80;;;;;;;6.71;58.78;102549.75;5055385;28;20471;-82
2021/04/26 03:05:15;;;;;;;6.93;2.30;;;;;;;6.67;58.81;102547.88;5055366;28;20040;-83
2021/04/26 03:07:44;;;;;;;4.57;1.90;;;;;;;6.66;58.92;102536.47;5055282;28;20419;-83
2021/04/26 03:10:14;;;;;;;4.43;1.80;;;;;;;6.68;58.73;102540.03;5055581;28;20032;-82
2021/04/26 03:12:42;;;;;;;3.83;1.85;;;;;;;6.64;58.92;102530.25;5055885;28;20025;-82
2021/04/26 03:15:13;;;;;;;6.72;2.00;;;;;;;6.65;58.88;102534.69;5056112;28;20056;-82
2021/04/26 03:17:41;;;;;;;4.22;2.13;;;;;;;6.65;58.86;102529.41;5055783;28;20082;-82
2021/04/26 03:20:12;;;;;;;7.45;1.90;;;;;;;6.61;59.07;102533.72;5055210;28;20025;-81
2021/04/26 03:22:40;;;;;;;7.13;2.80;;;;;;;6.59;59.12;102524.00;5055203;28;20032;-82
2021/04/26 03:25:08;;;;;;;6.60;2.15;;;;;;;6.54;59.29;102531.81;5056050;28;20471;-83
2021/04/26 03:27:35;;;;;;;4.75;2.33;;;;;;;6.55;59.23;102522.16;5055154;28;20490;-83
2021/04/26 03:30:04;;;;;;;5.97;1.63;;;;;;;6.58;59.18;102527.47;5055425;28;20036;-83
2021/04/26 03:32:31;;;;;;;6.50;1.92;;;;;;;6.53;59.46;102518.59;5055028;28;20021;-84
2021/04/26 03:34:58;;;;;;;5.10;2.00;;;;;;;6.55;59.22;102517.75;5055261;28;20025;-82
2021/04/26 03:37:25;;;;;;;5.53;1.90;;;;;;;6.54;59.31;102512.47;5055011;28;20078;-83
2021/04/26 03:39:51;;;;;;;9.07;2.03;;;;;;;6.50;59.43;102506.25;5055147;28;20476;-84
2021/04/26 03:42:19;;;;;;;5.25;2.08;;;;;;;6.47;59.47;102508.81;5054976;28;20502;-84
2021/04/26 03:44:47;;;;;;;6.15;2.22;;;;;;;6.44;59.57;102509.63;5055480;28;20086;-83
2021/04/26 03:47:14;;;;;;;4.00;1.60;;;;;;;6.40;59.54;102505.13;5054719;28;20044;-83
2021/04/26 03:49:42;;;;;;;9.15;2.63;;;;;;;6.38;59.46;102504.22;5054498;28;20040;-83
2021/04/26 03:52:09;;;;;;;5.70;1.92;;;;;;;6.33;59.55;102495.31;5053920;28;20022;-83
2021/04/26 03:54:36;;;;;;;9.35;2.20;;;;;;;6.34;59.43;102497.06;5055514;28;20029;-83
2021/04/26 03:57:02;;;;;;;8.90;2.88;;;;;;;6.32;59.42;102499.69;5055100;28;20024;-84
2021/04/26 03:59:29;;;;;;;6.70;1.73;;;;;;;6.29;59.55;102501.34;5055281;28;20039;-83
2021/04/26 04:01:55;;;;;;;10.38;2.00;;;;;;;6.28;59.64;102495.19;5054086;28;20476;-83
2021/04/26 04:04:22;;;;;;;5.15;1.90;;;;;;;6.28;59.45;102499.56;5055085;28;20032;-83
2021/04/26 04:06:49;;;;;;;10.30;2.10;;;;;;;6.23;59.93;102503.81;5054540;28;20056;-83
2021/04/26 04:09:16;;;;;;;6.65;1.90;;;;;;;6.18;59.88;102497.56;5054928;28;20037;-82
2021/04/26 04:11:43;;;;;;;7.55;2.20;;;;;;;6.18;59.67;102487.94;5054675;28;20120;-84
2021/04/26 04:14:10;;;;;;;9.57;2.28;;;;;;;6.17;59.82;102490.50;5054017;28;20079;-82
2021/04/26 04:16:36;;;;;;;4.40;1.90;;;;;;;6.15;60.06;102491.34;5054041;28;20040;-83
2021/04/26 04:19:03;;;;;;;6.03;1.85;;;;;;;6.17;59.95;102491.41;5053960;28;20403;-84
2021/04/26 04:21:30;;;;;;;6.35;2.25;;;;;;;6.18;60.00;102489.66;5053817;28;20100;-84
2021/04/26 04:23:56;;;;;;;8.68;1.90;;;;;;;6.17;59.78;102493.16;5053499;28;20025;-84
2021/04/26 04:26:22;;;;;;;9.90;1.98;;;;;;;6.19;59.89;102486.19;5054233;28;20028;-84
2021/04/26 04:28:48;;;;;;;7.50;1.98;;;;;;;6.15;59.90;102490.47;5054158;28;20040;-82
2021/04/26 04:31:15;;;;;;;4.70;2.20;;;;;;;6.15;59.99;102487.84;5054260;28;20036;-82
2021/04/26 04:33:41;;;;;;;6.30;2.05;;;;;;;6.17;59.99;102493.16;5053594;28;20502;-82
2021/04/26 04:36:07;;;;;;;6.95;1.83;;;;;;;6.15;60.04;102488.72;5054267;28;20033;-82
2021/04/26 04:38:33;;;;;;;3.95;2.17;;;;;;;6.14;59.94;102494.88;5053587;28;20033;-82
2021/04/26 04:41:00;;;;;;;8.45;2.03;;;;;;;6.17;60.10;102493.16;5094920;22;20059;-82
2021/04/26 04:43:27;;;;;;;3.60;2.22;;;;;;;6.20;60.00;102490.59;5054632;28;20452;-81
2021/04/26 04:45:57;;;;;;;2.25;1.98;;;;;;;6.21;60.37;102490.63;5053993;28;20116;-82
2021/04/26 04:48:23;;;;;;;3.45;2.17;;;;;;;6.20;60.15;102485.34;5053965;28;20036;-81
2021/04/26 04:50:50;;;;;;;7.38;1.95;;;;;;;6.22;60.14;102488.88;5053712;28;20025;-81
2021/04/26 04:53:16;;;;;;;8.82;2.35;;;;;;;6.25;60.21;102488.97;5053439;28;20040;-81
2021/04/26 04:55:42;;;;;;;7.50;2.50;;;;;;;6.28;60.23;102486.41;5052244;28;20029;-82
2021/04/26 04:58:09;;;;;;;6.15;2.15;;;;;;;6.30;60.13;102479.44;5052443;28;20029;-81
2021/04/26 05:00:35;;;;;;;5.75;2.45;;;;;;;6.28;60.67;102476.78;5052176;28;20124;-82
2021/04/26 05:03:03;;;;;;;5.05;2.17;;;;;;;6.32;60.59;102485.63;5053086;28;20029;-83
2021/04/26 05:05:29;;;;;;;7.15;2.40;;;;;;;6.38;60.60;102487.50;5054038;28;20459;-81
2021/04/26 05:07:55;;;;;;;7.30;2.13;;;;;;;6.38;60.81;102476.97;5053715;28;20078;-81
2021/04/26 05:10:23;;;;;;;4.97;2.63;;;;;;;6.45;60.51;102479.78;5053705;28;20033;-82
2021/04/26 05:12:50;;;;;;;7.57;2.10;;;;;;;6.50;60.75;102477.28;5054147;28;20028;-79
2021/04/26 05:15:17;;;;;;;5.45;2.90;;;;;;;6.55;60.48;102477.38;5053375;28;20036;-82
2021/04/26 05:17:45;;;;;;;13.10;2.55;;;;;;;6.56;60.74;102482.69;5052111;28;20095;-81
2021/04/26 05:20:12;;;;;;;4.45;1.85;;;;;;;6.63;60.56;102476.72;5053541;28;20064;-81
2021/04/26 05:22:39;;;;;;;7.65;2.17;;;;;;;6.66;60.56;102467.09;5053385;28;20075;-81
2021/04/26 05:25:08;;;;;;;4.18;2.22;;;;;;;6.70;60.57;102464.53;5053517;28;20032;-81
2021/04/26 05:27:36;;;;;;;5.35;1.63;;;;;;;6.73;60.61;102474.25;5052077;28;20032;-81
2021/04/26 05:30:05;;;;;;;8.65;2.30;;;;;;;6.80;60.40;102469.19;5053560;28;20473;-83
2021/04/26 05:32:31;;;;;;;6.38;2.25;;;;;;;6.80;60.49;102471.81;5052965;28;20070;-81
2021/04/26 05:34:58;;;;;;;4.13;2.00;;;;;;;6.84;60.49;102469.25;5053631;28;20051;-83
2021/04/26 05:37:24;;;;;;;8.50;1.90;;;;;;;6.88;60.42;102473.72;5053331;28;20022;-81
2021/04/26 05:39:50;;;;;;;3.85;2.08;;;;;;;6.95;60.49;102475.63;5053894;28;20021;-82
2021/04/26 05:42:16;;;;;;;4.03;1.90;;;;;;;6.99;60.18;102480.13;5052283;28;20029;-82
2021/04/26 05:44:43;;;;;;;8.32;1.92;;;;;;;7.03;60.33;102478.41;5052665;28;20029;-81
2021/04/26 05:47:12;;;;;;;16.17;2.20;;;;;;;7.09;60.53;102474.19;5053111;28;20029;-87
2021/04/26 05:49:39;;;;;;;8.57;2.00;;;;;;;7.13;60.18;102476.00;5051536;28;20083;-82
2021/04/26 05:52:05;;;;;;;6.53;2.80;;;;;;;7.18;60.41;102469.94;5051694;28;20056;-83
2021/04/26 05:54:32;;;;;;;6.28;2.00;;;;;;;7.21;60.54;102472.66;5053030;28;20036;-81
2021/04/26 05:57:03;;;;;;;7.30;2.25;;;;;;;7.26;60.14;102471.00;5052705;28;20037;-81
2021/04/26 05:59:37;;;;;;;7.40;1.90;;;;;;;7.25;60.38;102463.94;5051051;28;20033;-80
2021/04/26 06:02:03;;;;;;;5.60;2.50;;;;;;;7.32;60.64;102471.13;5068500;28;20040;-81
2021/04/26 06:04:29;;;;;;;9.38;1.85;;;;;;;7.38;60.28;102462.44;5054058;28;20033;-81
2021/04/26 06:06:56;;;;;;;3.83;2.17;;;;;;;7.39;60.37;102457.19;5052721;28;20555;-78
2021/04/26 06:09:22;;;;;;;8.88;1.90;;;;;;;7.42;60.93;102465.16;5047765;28;20464;-80
2021/04/26 06:11:49;;;;;;;4.75;1.65;;;;;;;7.51;60.19;102459.16;5065811;22;20057;-86
2021/04/26 06:14:15;;;;;;;6.22;2.42;;;;;;;7.61;60.42;102452.31;5043273;28;20124;-83
2021/04/26 06:16:41;;;;;;;4.85;2.08;;;;;;;7.63;60.71;102463.78;5041313;28;20061;-83
2021/04/26 06:19:07;;;;;;;3.42;1.77;;;;;;;7.72;60.14;102461.31;5055859;28;20142;-84
2021/04/26 06:21:34;;;;;;;7.40;2.05;;;;;;;7.82;60.41;102465.00;5035682;28;20033;-85
2021/04/26 06:24:00;;;;;;;4.90;2.25;;;;;;;7.90;60.50;102462.47;5035681;28;20027;-86
2021/04/26 06:26:26;;;;;;;4.13;1.70;;;;;;;7.98;60.01;102458.22;5035335;28;20025;-86
2021/04/26 06:28:52;;;;;;;5.75;1.92;;;;;;;7.96;60.34;102459.06;5034323;28;20030;-87
2021/04/26 06:31:19;;;;;;;6.10;1.70;;;;;;;8.08;60.30;102460.16;5034715;28;20037;-87
2021/04/26 06:33:45;;;;;;;4.85;1.88;;;;;;;8.20;60.13;102461.22;5029396;28;20064;-87
2021/04/26 06:36:11;;;;;;;5.20;1.77;;;;;;;8.28;59.52;102464.88;5034712;28;20025;-86
2021/04/26 06:38:37;;;;;;;3.42;1.73;;;;;;;8.34;60.24;102458.81;5033142;28;20071;-87
2021/04/26 06:41:04;;;;;;;4.28;1.50;;;;;;;8.46;59.66;102458.09;5034331;28;20029;-87
2021/04/26 06:43:30;;;;;;;6.30;2.03;;;;;;;8.54;59.18;102460.00;5032936;28;20026;-87
2021/04/26 06:45:57;;;;;;;6.30;1.75;;;;;;;8.63;59.01;102455.75;5032889;28;20025;-87
2021/04/26 06:48:23;;;;;;;7.57;2.15;;;;;;;8.73;59.08;102457.63;5029699;28;20439;-86
2021/04/26 06:50:54;;;;;;;5.70;2.30;;;;;;;8.87;58.96;102457.81;5032654;28;20045;-88
2021/04/26 06:53:20;;;;;;;3.22;1.60;;;;;;;8.93;58.22;102457.88;5030774;28;20037;-86
2021/04/26 06:55:49;;;;;;;7.88;1.80;;;;;;;8.97;58.13;102459.72;5032034;28;20369;-89
2021/04/26 06:58:15;;;;;;;10.65;2.60;;;;;;;9.07;57.85;102460.69;5033956;28;20037;-86
2021/04/26 07:00:42;;;;;;;18.15;7.75;;;;;;;9.12;57.25;102452.84;5033845;28;20041;-87
2021/04/26 07:03:08;;;;;;;4.43;1.67;;;;;;;9.23;56.92;102454.75;5031739;28;20153;-87
2021/04/26 07:05:34;;;;;;;4.32;1.60;;;;;;;9.25;57.19;102449.47;5032584;28;20036;-86
2021/04/26 07:08:01;;;;;;;10.25;1.77;;;;;;;9.30;56.49;102453.06;5034097;28;20037;-86
2021/04/26 07:10:27;;;;;;;4.40;1.30;;;;;;;9.45;56.04;102441.75;5032977;28;20048;-87
2021/04/26 07:12:53;;;;;;;3.08;1.00;;;;;;;9.49;55.96;102447.97;5032231;28;20097;-87
2021/04/26 07:15:20;;;;;;;5.60;1.33;;;;;;;9.60;55.62;102440.13;5032875;28;20048;-88
2021/04/26 07:17:46;;;;;;;3.47;2.00;;;;;;;9.67;54.93;102441.94;5031793;28;20033;-85
2021/04/26 07:20:14;;;;;;;4.93;1.92;;;;;;;9.80;54.62;102442.97;5032554;28;20033;-85
2021/04/26 07:22:41;;;;;;;3.85;1.45;;;;;;;9.79;54.58;102443.84;5033593;28;20033;-87
2021/04/26 07:25:09;;;;;;;6.35;1.52;;;;;;;9.92;54.32;102437.78;5031875;28;20064;-87
2021/04/26 07:27:35;;;;;;;5.20;1.50;;;;;;;9.99;53.93;102436.97;5022357;28;20042;-86
2021/04/26 07:30:03;;;;;;;7.45;2.10;;;;;;;10.09;53.30;102442.31;5021103;28;20105;-86
2021/04/26 07:32:29;;;;;;;5.53;1.50;;;;;;;10.15;53.42;102439.72;5032931;28;20030;-87
2021/04/26 07:34:55;;;;;;;3.97;1.60;;;;;;;10.23;52.79;102437.13;5023209;28;20061;-86
2021/04/26 07:37:22;;;;;;;2.30;1.02;;;;;;;10.25;52.13;102436.25;5028962;28;20104;-87
2021/04/26 07:39:48;;;;;;;3.75;1.48;;;;;;;10.32;52.00;102437.19;5031140;28;20068;-87
2021/04/26 07:42:14;;;;;;;6.88;1.65;;;;;;;10.38;51.42;102442.56;5034585;28;20362;-86
2021/04/26 07:44:41;;;;;;;5.85;1.30;;;;;;;10.55;51.13;102434.69;5031379;28;20040;-87
2021/04/26 07:47:08;;;;;;;2.22;1.33;;;;;;;10.60;50.60;102425.00;5031434;28;20034;-83
2021/04/26 07:49:35;;;;;;;5.57;1.38;;;;;;;10.64;50.46;102423.25;5025625;28;20128;-87
2021/04/26 07:52:01;;;;;;;5.53;2.95;;;;;;;10.75;50.03;102421.53;5032349;28;20537;-85
2021/04/26 07:54:28;;;;;;;5.78;1.50;;;;;;;10.88;49.77;102417.19;5027627;28;20037;-86
2021/04/26 07:56:57;;;;;;;5.05;1.55;;;;;;;10.85;49.75;102427.78;5029640;28;20073;-86
2021/04/26 07:59:24;;;;;;;4.97;1.52;;;;;;;10.93;49.41;102412.81;5030606;28;20049;-85
2021/04/26 08:01:50;;;;;;;2.72;1.27;;;;;;;10.95;48.97;102408.41;5029951;28;20036;-87
2021/04/26 08:04:16;;;;;;;4.35;1.20;;;;;;;11.08;49.00;102405.75;5032043;28;20481;-86
2021/04/26 08:06:42;;;;;;;5.28;1.20;;;;;;;11.15;48.74;102410.19;5030838;28;20488;-86
2021/04/26 08:09:09;;;;;;;7.00;1.52;;;;;;;11.24;48.72;102407.59;5033365;28;20041;-86
2021/04/26 08:11:35;;;;;;;4.10;1.23;;;;;;;11.32;48.77;102397.84;5031953;28;20385;-87
2021/04/26 08:14:02;;;;;;;5.55;1.23;;;;;;;11.47;48.39;102401.44;5020747;28;20074;-88
2021/04/26 08:16:28;;;;;;;4.53;1.30;;;;;;;11.51;47.29;102407.63;5033438;28;20037;-87
2021/04/26 08:18:55;;;;;;;5.50;1.30;;;;;;;11.59;47.76;102405.84;5031086;28;20033;-83
2021/04/26 08:21:22;;;;;;;4.28;1.30;;;;;;;11.69;47.23;102401.44;5031637;28;20041;-87
2021/04/26 08:23:48;;;;;;;3.63;1.35;;;;;;;11.83;46.85;102399.69;5030896;28;20141;-86
2021/04/26 08:26:14;;;;;;;8.73;1.40;;;;;;;11.84;46.03;102398.81;5031004;28;20029;-86
2021/04/26 08:28:41;;;;;;;23.48;3.45;;;;;;;11.97;45.95;102395.28;5030406;28;20030;-85
2021/04/26 08:31:07;;;;;;;11.80;2.22;;;;;;;12.04;45.85;102398.81;5029008;28;20087;-86
2021/04/26 08:33:36;;;;;;;11.98;1.90;;;;;;;12.14;46.13;102392.59;5031505;28;20484;-86
2021/04/26 08:36:03;;;;;;;3.30;1.42;;;;;;;12.14;45.24;102391.72;5030275;28;20041;-82
2021/04/26 08:38:29;;;;;;;40.67;4.88;;;;;;;12.22;45.17;102391.69;5031611;28;20034;-86
2021/04/26 08:40:55;;;;;;;13.82;2.05;;;;;;;12.33;45.34;102386.38;5032292;28;20026;-88
2021/04/26 08:43:22;;;;;;;3.50;1.10;;;;;;;12.42;45.13;102383.66;5032493;28;20053;-87
2021/04/26 08:45:48;;;;;;;4.18;1.20;;;;;;;12.60;45.14;102388.06;5030458;28;20033;-86
2021/04/26 08:48:16;;;;;;;11.18;5.43;;;;;;;12.70;44.29;102392.44;5031304;28;20030;-86
2021/04/26 08:50:42;;;;;;;18.75;8.10;;;;;;;12.76;43.88;102388.84;5027642;28;20069;-85
2021/04/26 08:53:08;;;;;;;8.65;2.40;;;;;;;12.75;42.56;102388.00;5031042;28;20026;-86
2021/04/26 08:55:35;;;;;;;3.88;1.50;;;;;;;13.01;42.75;102388.75;5028440;28;20108;-85
2021/04/26 08:58:01;;;;;;;4.10;1.90;;;;;;;13.05;42.27;102371.88;5028719;28;20481;-84
2021/04/26 09:00:28;;;;;;;3.55;1.58;;;;;;;13.22;42.52;102366.44;5018721;28;20488;-80
2021/04/26 09:02:57;;;;;;;3.63;1.55;;;;;;;13.20;41.91;102368.25;5026509;28;20032;-86
2021/04/26 09:05:26;;;;;;;5.38;1.63;;;;;;;13.20;41.82;102371.78;5029684;28;20021;-83
2021/04/26 09:07:55;;;;;;;8.07;1.48;;;;;;;13.40;41.61;102370.81;5030613;28;20125;-84
2021/04/26 09:10:51;;;;;;;2.65;1.23;;;;;;;13.63;41.04;102375.06;5030433;28;20042;-81
2021/04/26 09:13:42;;;;;;;5.88;1.90;;;;;;;13.63;40.51;102364.41;5029037;28;20044;-85
2021/04/26 09:24:24;;;;;;;3.17;1.48;;;;;;;13.83;39.42;102362.47;5055947;27;20943;-83
2021/04/26 09:26:53;;;;;;;5.88;1.55;;;;;;;13.95;39.45;102357.91;5048725;28;20108;-87
2021/04/26 09:32:16;;;;;;;5.85;1.90;;;;;;;14.11;38.78;102353.31;5093932;27;20379;-85
2021/04/26 09:34:47;;;;;;;3.75;1.75;;;;;;;14.26;38.44;102346.94;5094532;28;20144;-84
2021/04/26 09:42:55;;;;;;;4.97;2.38;;;;;;;14.40;38.41;102332.53;5069628;27;20402;-84
2021/04/26 09:45:37;;;;;;;7.00;2.10;;;;;;;14.49;37.50;102334.22;5066107;28;20079;-83
2021/04/26 09:51:08;;;;;;;5.30;2.60;;;;;;;14.75;38.14;102319.66;5073722;28;20409;-83
2021/04/26 09:53:47;;;;;;;5.63;1.52;;;;;;;14.81;37.98;102310.69;5053753;28;20032;-84
2021/04/26 09:56:18;;;;;;;6.35;1.75;;;;;;;14.92;38.28;102300.75;5052013;28;20025;-83
2021/04/26 09:58:46;;;;;;;4.55;2.30;;;;;;;14.95;37.81;102307.81;5034283;28;20037;-83
2021/04/26 10:01:13;;;;;;;7.28;2.35;;;;;;;14.97;37.47;102303.34;5049583;28;20115;-83
2021/04/26 10:03:39;;;;;;;4.20;2.05;;;;;;;15.01;37.19;102302.38;5041485;28;20112;-85
2021/04/26 10:06:06;;;;;;;4.43;2.00;;;;;;;15.10;37.38;102301.38;5040582;28;20029;-86
2021/04/26 10:08:32;;;;;;;5.13;1.42;;;;;;;15.06;37.71;102300.53;5034486;28;20036;-85
2021/04/26 10:10:58;;;;;;;5.95;1.88;;;;;;;15.08;37.53;102306.72;5039165;28;20124;-84
2021/04/26 10:13:26;;;;;;;9.32;1.83;;;;;;;14.96;37.36;102301.59;5035007;28;20055;-85
2021/04/26 10:15:55;;;;;;;5.40;1.75;;;;;;;15.01;38.13;102297.06;5038181;28;20106;-84
2021/04/26 10:18:30;;;;;;;5.03;2.05;;;;;;;15.08;37.45;102301.41;5037226;28;20048;-85
2021/04/26 10:20:56;;;;;;;4.35;2.15;;;;;;;15.26;37.15;102294.88;5033053;28;20037;-84
2021/04/26 10:23:39;;;;;;;6.55;2.05;;;;;;;15.42;36.65;102292.81;5039752;28;20021;-86
2021/04/26 10:26:07;;;;;;;30.63;16.08;;;;;;;15.50;37.07;102293.59;5044133;28;20021;-85
2021/04/26 10:28:36;;;;;;;5.82;3.08;;;;;;;15.47;37.00;102292.75;5027794;28;20041;-84
2021/04/26 10:39:25;;;;;;;3.78;1.70;;;;;;;15.75;36.55;102281.56;5082961;28;20442;-84
2021/04/26 10:44:50;;;;;;;4.97;1.88;;;;;;;15.96;36.91;102269.59;5088090;27;20792;-80
2021/04/26 10:47:37;;;;;;;5.30;2.00;;;;;;;16.04;36.93;102270.34;5101097;28;20028;-80
2021/04/26 10:52:54;;;;;;;4.25;1.67;;;;;;;16.15;36.48;102260.31;5085344;27;20435;-82
2021/04/26 10:58:23;;;;;;;4.40;1.85;;;;;;;16.32;35.03;102243.03;5076900;27;20408;-80
2021/04/26 11:00:50;;;;;;;7.80;2.72;;;;;;;16.28;35.98;102244.00;5070084;28;20052;-81
2021/04/26 11:06:06;;;;;;;13.98;2.30;;;;;;;16.26;35.87;102224.44;5071802;27;20410;-80
2021/04/26 11:11:18;;;;;;;5.32;1.90;;;;;;;16.44;36.01;102216.00;5042097;28;20525;-80
2021/04/26 11:13:52;;;;;;;6.28;2.13;;;;;;;16.49;35.71;102222.13;5029356;28;20025;-81
2021/04/26 11:19:09;;;;;;;5.70;2.30;;;;;;;16.49;36.24;102227.47;5068366;27;20457;-81
2021/04/26 11:33:02;;;;;;;5.65;2.20;;;;;;;16.63;34.46;102207.56;5088996;27;20418;-82
2021/04/26 11:35:30;;;;;;;5.35;1.77;;;;;;;16.64;35.08;102190.59;5088851;28;20526;-83
2021/04/26 11:37:57;;;;;;;6.03;2.22;;;;;;;16.72;35.70;102190.38;5095611;28;20434;-82
2021/04/26 11:40:27;;;;;;;3.67;1.90;;;;;;;16.86;35.25;102182.03;5088977;28;20550;-82
2021/04/26 11:43:03;;;;;;;10.55;2.10;;;;;;;16.88;34.60;102181.06;5086703;28;20034;-81
2021/04/26 11:45:30;;;;;;;7.25;2.15;;;;;;;16.89;34.64;102187.31;5084474;28;20086;-81
2021/04/26 11:47:56;;;;;;;13.07;5.63;;;;;;;16.88;35.05;102189.09;5071598;28;20036;-83
2021/04/26 11:50:22;;;;;;;8.98;3.65;;;;;;;17.09;34.87;102182.34;5088725;28;20020;-84
2021/04/26 11:52:49;;;;;;;8.25;2.42;;;;;;;17.19;34.83;102184.78;5087650;28;20024;-84
2021/04/26 11:55:18;;;;;;;6.10;2.10;;;;;;;17.33;34.52;102187.97;5077830;28;20033;-85
2021/04/26 12:00:32;;;;;;;5.85;2.17;;;;;;;17.24;34.29;102188.22;5054274;28;20181;-84
2021/04/26 12:03:05;;;;;;;8.95;2.20;;;;;;;17.36;33.43;102171.81;5044379;28;20041;-81
2021/04/26 12:05:32;;;;;;;5.30;2.70;;;;;;;17.34;33.69;102178.16;5048022;28;20049;-85
2021/04/26 12:07:58;;;;;;;5.97;2.00;;;;;;;17.50;33.92;102173.25;5048151;28;20477;-85
2021/04/26 12:10:28;;;;;;;5.05;2.13;;;;;;;17.49;33.02;102163.44;5048117;28;20033;-84
2021/04/26 12:12:57;;;;;;;3.80;2.05;;;;;;;17.30;32.94;102169.31;5042659;28;20087;-82
2021/04/26 12:15:24;;;;;;;3.63;2.08;;;;;;;17.30;33.07;102167.50;5035066;28;20468;-81
2021/04/26 12:17:58;;;;;;;3.88;2.40;;;;;;;17.37;32.47;102167.34;5046913;28;20033;-81
2021/04/26 12:23:17;;;;;;;2.97;2.03;;;;;;;17.55;32.01;102158.78;5054443;28;20415;-83
2021/04/26 12:25:48;;;;;;;6.30;2.38;;;;;;;17.58;32.10;102144.41;5034404;28;20051;-82
2021/04/26 12:28:15;;;;;;;6.18;2.40;;;;;;;17.69;31.85;102138.75;5041922;28;20029;-82
2021/04/26 12:30:43;;;;;;;5.63;2.10;;;;;;;17.79;31.93;102137.56;5042558;28;20025;-80
2021/04/26 12:33:31;;;;;;;5.95;2.13;;;;;;;17.77;32.07;102134.94;5042988;28;20397;-81
2021/04/26 12:35:59;;;;;;;6.53;2.30;;;;;;;17.62;31.82;102132.72;5040052;28;20391;-81
2021/04/26 12:38:28;;;;;;;6.10;2.10;;;;;;;17.68;31.65;102127.13;5030334;28;20379;-81
2021/04/26 12:40:57;;;;;;;8.70;2.58;;;;;;;17.81;31.68;102125.00;5037821;28;20025;-83
2021/04/26 12:43:32;;;;;;;4.50;1.92;;;;;;;17.99;31.21;102123.56;5041526;28;20045;-82
2021/04/26 12:46:05;;;;;;;7.75;2.25;;;;;;;17.99;30.36;102112.84;5045211;28;20036;-83